Time;durP1;ratioP1;P1;durP2;ratioP2;P2;SDS_P1;SDS_P2;PMS_P1;PMS_P2;Temp;Humidity;BMP_temperature;BMP_pressure;BME280_temperature;BME280_humidity;BME280_pressure;Samples;Min_cycle;Max_cycle;Signal;HPM_P1;HPM_P2
2023/12/17 00:01:18;;;;;;;15.20;12.20;;;3.60;1.00;;;;;;5119137;28;20639;-43
2023/12/17 00:03:44;;;;;;;17.90;12.90;;;3.60;1.00;;;;;;5118918;28;20253;-42
2023/12/17 00:06:10;;;;;;;17.20;13.40;;;3.60;1.00;;;;;;5119543;28;20191;-41
2023/12/17 00:08:36;;;;;;;14.83;12.33;;;3.60;1.00;;;;;;5119334;28;20172;-41
2023/12/17 00:11:02;;;;;;;14.30;11.87;;;3.50;1.00;;;;;;5119330;28;20912;-40
2023/12/17 00:13:27;;;;;;;14.30;11.90;;;3.50;1.00;;;;;;5119494;28;20211;-45
2023/12/17 00:15:53;;;;;;;15.27;13.77;;;3.50;1.00;;;;;;5119340;28;20433;-41
2023/12/17 00:18:19;;;;;;;18.17;12.80;;;3.50;1.00;;;;;;5117617;28;20184;-43
2023/12/17 00:20:44;;;;;;;16.57;14.10;;;3.50;1.00;;;;;;5117123;28;20164;-42
2023/12/17 00:23:10;;;;;;;14.97;12.60;;;3.50;1.00;;;;;;5117868;28;20515;-42
2023/12/17 00:25:37;;;;;;;14.60;12.57;;;3.40;1.00;;;;;;5098664;28;20219;-44
2023/12/17 00:28:02;;;;;;;17.07;12.10;;;3.40;1.00;;;;;;5117434;28;20466;-42
2023/12/17 00:30:28;;;;;;;15.90;12.40;;;3.40;1.00;;;;;;5118138;28;20439;-42
2023/12/17 00:32:54;;;;;;;13.10;11.77;;;3.40;1.00;;;;;;5118767;28;20190;-41
2023/12/17 00:35:20;;;;;;;15.77;11.27;;;3.40;1.00;;;;;;5117950;28;20182;-40
2023/12/17 00:37:46;;;;;;;16.87;12.70;;;3.40;1.00;;;;;;5098280;28;20180;-41
2023/12/17 00:40:12;;;;;;;15.40;10.97;;;3.40;1.00;;;;;;5115387;28;20502;-41
2023/12/17 00:42:37;;;;;;;12.93;11.00;;;3.40;1.00;;;;;;5096151;28;20815;-41
2023/12/17 00:45:05;;;;;;;16.83;11.67;;;3.40;1.00;;;;;;5096025;28;20400;-40
2023/12/17 00:47:30;;;;;;;13.60;11.53;;;3.40;1.00;;;;;;5115245;28;20184;-41
2023/12/17 00:49:56;;;;;;;13.23;11.23;;;3.40;1.00;;;;;;5115199;28;20453;-41
2023/12/17 00:52:22;;;;;;;13.30;11.23;;;3.40;1.00;;;;;;5116430;28;20207;-41
2023/12/17 00:54:48;;;;;;;15.03;12.13;;;3.30;1.00;;;;;;5116257;28;20207;-40
2023/12/17 00:57:14;;;;;;;13.93;10.97;;;3.30;1.00;;;;;;5116669;28;20455;-41
2023/12/17 00:59:39;;;;;;;14.27;12.30;;;3.30;1.00;;;;;;5116230;28;20425;-43
2023/12/17 01:02:05;;;;;;;12.77;10.27;;;3.30;1.00;;;;;;5116228;28;20469;-41
2023/12/17 01:04:31;;;;;;;13.63;12.20;;;3.30;1.00;;;;;;5115882;28;20243;-41
2023/12/17 01:06:56;;;;;;;12.90;10.90;;;3.30;1.00;;;;;;5116387;28;20430;-40
2023/12/17 01:09:22;;;;;;;13.30;10.60;;;3.30;1.00;;;;;;5117043;28;20547;-42
2023/12/17 01:11:48;;;;;;;14.13;11.13;;;3.30;1.00;;;;;;5117301;28;20183;-41
2023/12/17 01:14:13;;;;;;;13.83;9.10;;;3.20;1.00;;;;;;5098796;28;20599;-42
2023/12/17 01:16:39;;;;;;;11.77;10.53;;;3.20;1.00;;;;;;5117472;28;20244;-40
2023/12/17 01:19:04;;;;;;;12.23;9.90;;;3.20;1.00;;;;;;5099774;28;20195;-41
2023/12/17 01:21:30;;;;;;;12.40;9.97;;;3.20;1.00;;;;;;5099306;28;20179;-42
2023/12/17 01:23:58;;;;;;;14.63;9.70;;;3.20;1.00;;;;;;5116901;28;20488;-42
2023/12/17 01:26:26;;;;;;;12.87;9.63;;;3.20;1.00;;;;;;5097997;28;20510;-40
2023/12/17 01:28:52;;;;;;;13.60;10.50;;;3.20;1.00;;;;;;5117042;28;20495;-42
2023/12/17 01:31:18;;;;;;;11.30;10.10;;;3.20;1.00;;;;;;5098839;28;20906;-41
2023/12/17 01:33:45;;;;;;;11.07;8.83;;;3.20;1.00;;;;;;5117149;28;20552;-40
2023/12/17 01:36:10;;;;;;;11.30;9.20;;;3.20;1.00;;;;;;5098566;28;20244;-41
2023/12/17 01:38:36;;;;;;;13.30;10.03;;;3.20;1.00;;;;;;5114492;28;20406;-42
2023/12/17 01:41:02;;;;;;;14.13;10.17;;;3.10;1.00;;;;;;5114906;28;20185;-41
2023/12/17 01:43:27;;;;;;;12.30;9.27;;;3.20;1.00;;;;;;5114807;28;20264;-41
2023/12/17 01:45:56;;;;;;;11.63;10.00;;;3.10;1.00;;;;;;5115519;28;20437;-41
2023/12/17 01:48:23;;;;;;;14.67;12.03;;;3.10;1.00;;;;;;5097086;28;20191;-40
2023/12/17 01:50:49;;;;;;;15.97;14.30;;;3.10;1.00;;;;;;5115621;28;20413;-39
2023/12/17 01:53:16;;;;;;;16.73;14.80;;;3.10;1.00;;;;;;5115455;28;20453;-40
2023/12/17 01:55:42;;;;;;;20.53;17.97;;;3.10;1.00;;;;;;5114840;28;20429;-40
2023/12/17 01:58:12;;;;;;;22.10;18.97;;;3.10;1.00;;;;;;5101328;28;20421;-40
2023/12/17 02:00:38;;;;;;;18.60;14.87;;;3.10;1.00;;;;;;5100867;28;20457;-43
2023/12/17 02:03:04;;;;;;;9.90;7.33;;;3.10;99.90;;;;;;5118928;28;20456;-40
2023/12/17 02:05:33;;;;;;;12.43;8.40;;;4.10;1.00;;;;;;5120744;28;20251;-40
2023/12/17 02:08:00;;;;;;;17.77;14.70;;;5.30;1.00;;;;;;5101249;28;20494;-42
2023/12/17 02:10:26;;;;;;;15.27;13.70;;;5.60;1.00;;;;;;5118736;28;20421;-43
2023/12/17 02:12:52;;;;;;;18.37;15.50;;;5.40;1.00;;;;;;5117671;28;20437;-42
2023/12/17 02:15:18;;;;;;;20.13;16.17;;;5.10;1.00;;;;;;5118820;28;20520;-42
2023/12/17 02:17:43;;;;;;;16.97;14.43;;;4.80;1.00;;;;;;5101927;28;20776;-42
2023/12/17 02:20:09;;;;;;;17.70;15.10;;;4.50;1.00;;;;;;5119649;28;20266;-45
2023/12/17 02:22:36;;;;;;;17.77;14.93;;;4.30;1.00;;;;;;5120314;28;20274;-41
2023/12/17 02:25:02;;;;;;;16.80;13.93;;;4.10;1.00;;;;;;5118529;28;20469;-40
2023/12/17 02:27:28;;;;;;;16.67;14.70;;;3.90;1.00;;;;;;5118187;28;20916;-40
2023/12/17 02:29:54;;;;;;;15.07;12.90;;;3.80;1.00;;;;;;5119431;28;20246;-42
2023/12/17 02:32:21;;;;;;;17.67;12.73;;;3.70;1.00;;;;;;5118488;28;20172;-40
2023/12/17 02:34:47;;;;;;;13.43;12.00;;;3.60;99.90;;;;;;5101190;28;20429;-40
2023/12/17 02:37:13;;;;;;;12.70;11.13;;;3.50;99.90;;;;;;5119207;28;20421;-41
2023/12/17 02:39:39;;;;;;;12.83;11.20;;;3.50;1.00;;;;;;5120472;28;20531;-43
2023/12/17 02:42:04;;;;;;;12.73;11.17;;;3.40;1.00;;;;;;5119428;28;20588;-42
2023/12/17 02:44:30;;;;;;;12.10;10.80;;;3.40;99.90;;;;;;5120099;28;20201;-41
2023/12/17 02:46:56;;;;;;;11.63;10.47;;;3.40;99.90;;;;;;5119349;28;20183;-42
2023/12/17 02:49:22;;;;;;;14.10;9.83;;;3.30;99.90;;;;;;5119587;28;20176;-42
2023/12/17 02:51:47;;;;;;;11.77;9.60;;;3.30;38.40;;;;;;5119283;28;20418;-41
2023/12/17 02:54:13;;;;;;;12.50;10.90;;;3.20;1.00;;;;;;5118949;28;20206;-42
2023/12/17 02:56:39;;;;;;;13.50;9.83;;;3.20;1.00;;;;;;5118911;28;20183;-41
2023/12/17 02:59:09;;;;;;;12.70;10.53;;;3.20;1.00;;;;;;5101203;28;20183;-42
2023/12/17 03:01:35;;;;;;;10.93;9.30;;;3.20;1.00;;;;;;5119128;28;20469;-43
2023/12/17 03:04:03;;;;;;;11.77;9.33;;;3.10;1.00;;;;;;5119367;28;20537;-41
2023/12/17 03:06:28;;;;;;;10.13;9.03;;;3.10;1.00;;;;;;5118219;28;20548;-41
2023/12/17 03:08:54;;;;;;;14.80;9.40;;;3.10;99.90;;;;;;5116522;28;20401;-40
2023/12/17 03:11:19;;;;;;;10.27;9.07;;;3.10;99.90;;;;;;5118852;28;20167;-42
2023/12/17 03:13:45;;;;;;;10.60;8.80;;;3.00;99.90;;;;;;5119304;28;20266;-42
2023/12/17 03:16:10;;;;;;;11.87;9.33;;;3.00;99.90;;;;;;5118775;28;20183;-41
2023/12/17 03:18:36;;;;;;;10.27;9.27;;;3.00;99.90;;;;;;5083555;28;20179;-41
2023/12/17 03:21:04;;;;;;;11.77;8.77;;;3.00;99.90;;;;;;5117414;28;20526;-43
2023/12/17 03:23:30;;;;;;;11.23;9.37;;;2.90;99.90;;;;;;5118045;28;20715;-40
2023/12/17 03:25:55;;;;;;;11.13;9.40;;;2.90;98.40;;;;;;5118592;28;20436;-41
2023/12/17 03:28:21;;;;;;;12.80;8.93;;;2.90;99.90;;;;;;5119185;28;20453;-42
2023/12/17 03:30:46;;;;;;;10.33;8.90;;;2.90;81.40;;;;;;5119780;28;20210;-41
2023/12/17 03:33:12;;;;;;;12.33;9.53;;;2.90;60.20;;;;;;5119022;28;20924;-39
2023/12/17 03:35:38;;;;;;;9.90;8.63;;;2.80;37.60;;;;;;5118974;28;20186;-41
2023/12/17 03:38:03;;;;;;;11.20;8.83;;;2.90;19.00;;;;;;5101439;28;20183;-41
2023/12/17 03:40:30;;;;;;;12.10;9.40;;;2.80;4.90;;;;;;5119268;28;20175;-41
2023/12/17 03:42:56;;;;;;;12.40;8.93;;;2.80;1.00;;;;;;5100749;28;20180;-41
2023/12/17 03:45:22;;;;;;;9.90;8.90;;;2.80;1.00;;;;;;5119909;28;20441;-41
2023/12/17 03:47:48;;;;;;;11.93;9.50;;;2.80;1.00;;;;;;5118914;28;20421;-41
2023/12/17 03:50:14;;;;;;;12.43;9.47;;;2.80;1.00;;;;;;5100261;28;20164;-42
2023/12/17 03:52:40;;;;;;;12.03;7.83;;;2.80;1.00;;;;;;5119226;28;20520;-42
2023/12/17 03:55:06;;;;;;;11.03;8.77;;;2.80;1.00;;;;;;5100504;28;20485;-42
2023/12/17 03:57:31;;;;;;;9.90;8.90;;;2.70;1.00;;;;;;5119069;28;20282;-42
2023/12/17 03:59:57;;;;;;;10.90;8.70;;;2.70;1.00;;;;;;5118619;28;20259;-47
2023/12/17 04:02:23;;;;;;;11.47;8.93;;;2.70;1.00;;;;;;5118208;28;20216;-41
2023/12/17 04:04:48;;;;;;;9.53;8.53;;;2.70;1.00;;;;;;5118539;28;20249;-40
2023/12/17 04:07:14;;;;;;;12.13;8.10;;;2.70;1.00;;;;;;5118504;28;20428;-43
2023/12/17 04:09:40;;;;;;;10.93;8.30;;;2.70;1.00;;;;;;5083521;28;20236;-41
2023/12/17 04:12:05;;;;;;;11.03;8.20;;;2.60;1.00;;;;;;5098724;28;20169;-41
2023/12/17 04:14:32;;;;;;;9.23;8.33;;;2.70;1.00;;;;;;5117756;28;20473;-42
2023/12/17 04:16:57;;;;;;;8.70;7.73;;;2.70;1.00;;;;;;5117386;28;20558;-42
2023/12/17 04:19:23;;;;;;;8.63;7.70;;;2.70;1.00;;;;;;5105885;28;20443;-41
2023/12/17 04:21:48;;;;;;;9.33;7.97;;;2.70;1.00;;;;;;5098014;28;20184;-41
2023/12/17 04:24:14;;;;;;;8.13;7.33;;;2.70;1.00;;;;;;5112602;28;20495;-43
2023/12/17 04:26:40;;;;;;;9.13;8.13;;;2.70;1.00;;;;;;5117350;28;20255;-43
2023/12/17 04:29:05;;;;;;;10.07;8.20;;;2.60;1.00;;;;;;5115627;28;20184;-41
2023/12/17 04:31:31;;;;;;;8.40;7.60;;;2.60;1.00;;;;;;5100271;28;20187;-41
2023/12/17 04:33:56;;;;;;;10.90;8.63;;;2.60;1.00;;;;;;5117989;28;20179;-41
2023/12/17 04:36:22;;;;;;;9.33;7.40;;;2.60;1.00;;;;;;5118072;28;20195;-43
2023/12/17 04:38:48;;;;;;;8.87;7.97;;;2.70;1.00;;;;;;5117095;28;20254;-40
2023/12/17 04:41:14;;;;;;;9.33;7.77;;;2.60;1.00;;;;;;5099152;28;20249;-41
2023/12/17 04:43:40;;;;;;;9.80;7.77;;;2.60;1.00;;;;;;5099247;28;20477;-42
2023/12/17 04:46:05;;;;;;;8.80;7.90;;;2.60;1.00;;;;;;5116305;28;20839;-41
2023/12/17 04:48:31;;;;;;;8.63;7.73;;;2.60;1.00;;;;;;5117763;28;20183;-41
2023/12/17 04:50:56;;;;;;;8.20;7.20;;;2.60;1.00;;;;;;5105394;28;20180;-42
2023/12/17 04:53:22;;;;;;;9.80;7.83;;;2.60;1.00;;;;;;5097962;28;20187;-41
2023/12/17 04:55:48;;;;;;;9.57;7.93;;;2.60;1.00;;;;;;5112303;28;20211;-42
2023/12/17 04:58:13;;;;;;;7.17;6.47;;;2.60;1.00;;;;;;5097798;28;20259;-41
2023/12/17 05:00:39;;;;;;;12.70;8.60;;;2.60;1.00;;;;;;5116105;28;20705;-42
2023/12/17 05:03:05;;;;;;;9.13;8.23;;;2.60;1.00;;;;;;5116246;28;20200;-40
2023/12/17 05:05:31;;;;;;;10.17;7.93;;;2.60;1.00;;;;;;5116169;28;20236;-43
2023/12/17 05:07:56;;;;;;;9.00;8.10;;;2.50;1.00;;;;;;5115958;28;20449;-43
2023/12/17 05:10:22;;;;;;;9.20;8.30;;;2.50;1.00;;;;;;5098069;28;20183;-41
2023/12/17 05:12:47;;;;;;;9.53;8.00;;;2.60;1.00;;;;;;5117410;28;20195;-41
2023/12/17 05:15:13;;;;;;;10.27;8.03;;;2.50;1.00;;;;;;5117828;28;20180;-41
2023/12/17 05:17:39;;;;;;;10.33;8.63;;;2.50;1.00;;;;;;5117500;28;20195;-41
2023/12/17 05:20:05;;;;;;;8.80;7.90;;;2.50;1.00;;;;;;5117185;28;20532;-41
2023/12/17 05:22:31;;;;;;;11.00;9.00;;;2.50;1.00;;;;;;5117032;28;20183;-42
2023/12/17 05:24:56;;;;;;;8.70;7.80;;;2.50;1.00;;;;;;5117303;28;20673;-42
2023/12/17 05:27:22;;;;;;;9.00;7.80;;;2.60;1.00;;;;;;5082450;28;20440;-42
2023/12/17 05:29:48;;;;;;;9.63;8.63;;;2.50;1.00;;;;;;5099732;28;20171;-43
2023/12/17 05:32:13;;;;;;;11.47;8.50;;;2.60;1.00;;;;;;5104811;28;20178;-41
2023/12/17 05:34:39;;;;;;;9.53;8.40;;;2.60;1.00;;;;;;5105976;28;20227;-42
2023/12/17 05:37:04;;;;;;;10.00;9.10;;;2.60;1.00;;;;;;5124143;28;20184;-44
2023/12/17 05:39:30;;;;;;;9.00;8.07;;;2.60;4.90;;;;;;5122864;28;20679;-40
2023/12/17 05:41:56;;;;;;;10.00;9.00;;;2.60;25.40;;;;;;5122543;28;20417;-41
2023/12/17 05:44:22;;;;;;;10.40;9.30;;;2.60;48.30;;;;;;5123528;28;20215;-41
2023/12/17 05:46:47;;;;;;;12.10;9.40;;;2.50;86.40;;;;;;5123794;28;20537;-42
2023/12/17 05:49:13;;;;;;;9.83;8.80;;;2.60;99.90;;;;;;5123419;28;20435;-39
2023/12/17 05:51:43;;;;;;;11.10;8.67;;;2.60;99.90;;;;;;5122311;28;20176;-41
2023/12/17 05:54:10;;;;;;;9.90;8.90;;;2.60;99.90;;;;;;5104421;28;20498;-39
2023/12/17 05:56:43;;;;;;;8.90;8.00;;;2.60;99.90;;;;;;5123768;28;20405;-42
2023/12/17 05:59:09;;;;;;;9.67;8.50;;;2.60;99.90;;;;;;5123338;28;20425;-40
2023/12/17 06:01:35;;;;;;;10.53;9.43;;;2.60;99.90;;;;;;5123339;28;20546;-42
2023/12/17 06:04:01;;;;;;;9.20;8.30;;;2.60;99.90;;;;;;5122239;28;20469;-40
2023/12/17 06:06:27;;;;;;;10.17;8.23;;;2.60;99.90;;;;;;5119689;28;20600;-40
2023/12/17 06:08:53;;;;;;;11.60;9.07;;;2.60;99.90;;;;;;5087883;28;20179;-40
2023/12/17 06:11:18;;;;;;;8.53;7.70;;;2.60;99.90;;;;;;5120333;28;20330;-42
2023/12/17 06:13:45;;;;;;;9.40;7.80;;;2.60;1.00;;;;;;5122656;28;20555;-40
2023/12/17 06:16:11;;;;;;;9.17;8.27;;;2.70;1.00;;;;;;5122793;28;20849;-40
2023/12/17 06:18:39;;;;;;;10.53;8.20;;;2.70;1.00;;;;;;5124799;28;20449;-41
2023/12/17 06:21:05;;;;;;;8.90;8.00;;;2.60;1.00;;;;;;5106995;28;20428;-39
2023/12/17 06:23:31;;;;;;;10.57;7.70;;;2.70;1.00;;;;;;5123402;28;20901;-40
2023/12/17 06:25:57;;;;;;;8.30;7.50;;;2.70;1.00;;;;;;5121506;28;20418;-43
2023/12/17 06:28:26;;;;;;;8.03;7.23;;;2.70;1.00;;;;;;5121325;28;20421;-40
2023/12/17 06:30:51;;;;;;;9.93;8.20;;;2.70;1.00;;;;;;5122787;28;20167;-43
2023/12/17 06:33:17;;;;;;;8.47;7.27;;;2.70;1.00;;;;;;5121965;28;20723;-40
2023/12/17 06:35:44;;;;;;;9.60;8.17;;;2.70;1.00;;;;;;5122479;28;20276;-42
2023/12/17 06:38:10;;;;;;;9.47;7.93;;;2.70;1.00;;;;;;5104473;28;20565;-42
2023/12/17 06:40:36;;;;;;;9.23;7.37;;;2.70;1.00;;;;;;5103548;28;20461;-40
2023/12/17 06:43:01;;;;;;;8.23;7.43;;;2.70;99.90;;;;;;5119871;28;20600;-40
2023/12/17 06:45:27;;;;;;;8.50;7.57;;;2.70;99.90;;;;;;5118423;28;20199;-42
2023/12/17 06:47:52;;;;;;;9.13;8.23;;;2.70;99.90;;;;;;5118228;28;20183;-42
2023/12/17 06:50:18;;;;;;;9.77;7.87;;;2.70;99.90;;;;;;5118815;28;20275;-39
2023/12/17 06:52:43;;;;;;;7.63;6.83;;;2.70;99.90;;;;;;5118690;28;20176;-41
2023/12/17 06:55:09;;;;;;;8.40;7.60;;;2.70;99.90;;;;;;5119152;28;20270;-39
2023/12/17 06:57:35;;;;;;;9.13;8.13;;;2.70;99.90;;;;;;5100699;28;20522;-43
2023/12/17 07:00:01;;;;;;;8.50;7.70;;;2.70;99.90;;;;;;5100783;28;20244;-42
2023/12/17 07:02:26;;;;;;;12.07;7.93;;;2.70;99.90;;;;;;5117486;28;20641;-43
2023/12/17 07:04:52;;;;;;;8.40;7.60;;;2.70;99.90;;;;;;5117563;28;20692;-40
2023/12/17 07:07:17;;;;;;;8.97;7.50;;;2.70;99.90;;;;;;5118546;28;20184;-41
2023/12/17 07:09:43;;;;;;;7.40;6.57;;;2.70;99.90;;;;;;5119858;28;20267;-41
2023/12/17 07:12:09;;;;;;;9.03;7.50;;;2.70;99.90;;;;;;5119093;28;20215;-42
2023/12/17 07:14:34;;;;;;;7.53;6.83;;;2.70;99.90;;;;;;5119332;28;20183;-41
2023/12/17 07:17:01;;;;;;;8.97;8.07;;;2.70;99.90;;;;;;5117375;28;20247;-40
2023/12/17 07:19:28;;;;;;;8.47;7.67;;;2.70;99.90;;;;;;5118134;28;20176;-42
2023/12/17 07:21:55;;;;;;;10.13;7.20;;;2.70;99.90;;;;;;5118524;28;20451;-42
2023/12/17 07:24:20;;;;;;;8.33;6.70;;;2.80;99.90;;;;;;5115701;28;20535;-40
2023/12/17 07:26:51;;;;;;;8.67;7.13;;;2.80;99.90;;;;;;5115129;28;20421;-40
2023/12/17 07:29:16;;;;;;;9.07;7.57;;;2.80;99.90;;;;;;5116774;28;20178;-40
2023/12/17 07:31:42;;;;;;;10.00;7.60;;;2.90;99.90;;;;;;5117148;28;20520;-41
2023/12/17 07:34:07;;;;;;;8.43;7.40;;;2.90;99.90;;;;;;5117994;28;20176;-41
2023/12/17 07:36:33;;;;;;;7.70;6.90;;;3.00;81.00;;;;;;5118212;28;20168;-43
2023/12/17 07:38:59;;;;;;;8.43;7.60;;;3.10;40.20;;;;;;5117181;28;20254;-41
2023/12/17 07:41:24;;;;;;;9.37;8.40;;;3.10;31.80;;;;;;5117784;28;20546;-42
2023/12/17 07:43:50;;;;;;;8.37;6.90;;;3.30;28.00;;;;;;5118006;28;20206;-42
2023/12/17 07:46:15;;;;;;;8.77;7.90;;;3.40;33.50;;;;;;5099435;28;20183;-42
2023/12/17 07:48:41;;;;;;;11.33;8.63;;;3.60;3.10;;;;;;5118644;28;20256;-41
2023/12/17 07:51:07;;;;;;;10.50;9.37;;;3.80;1.00;;;;;;5117718;28;20188;-40
2023/12/17 07:53:33;;;;;;;11.10;9.90;;;4.10;1.00;;;;;;5115930;28;20167;-41
2023/12/17 07:55:59;;;;;;;13.47;9.43;;;4.30;99.90;;;;;;5115676;28;20935;-41
2023/12/17 07:58:25;;;;;;;11.17;10.07;;;4.70;99.90;;;;;;5117371;28;20182;-40
2023/12/17 08:00:53;;;;;;;11.00;9.90;;;5.00;1.00;;;;;;5098869;28;20500;-42
2023/12/17 08:03:23;;;;;;;10.43;8.67;;;5.40;99.90;;;;;;5116476;28;20302;-41
2023/12/17 08:05:52;;;;;;;8.90;8.00;;;5.90;1.00;;;;;;5098086;28;20854;-41
2023/12/17 08:08:22;;;;;;;9.53;7.90;;;6.30;99.90;;;;;;5116455;28;20709;-40
2023/12/17 08:10:47;;;;;;;9.00;7.80;;;6.70;1.00;;;;;;5115131;28;20879;-41
2023/12/17 08:13:13;;;;;;;8.13;7.33;;;7.20;99.90;;;;;;5113905;28;20452;-41
2023/12/17 08:15:38;;;;;;;8.57;7.67;;;7.70;1.00;;;;;;5115714;28;20356;-42
2023/12/17 08:18:04;;;;;;;8.47;7.63;;;8.30;54.80;;;;;;5115753;28;20540;-41
2023/12/17 08:20:30;;;;;;;9.03;8.13;;;8.80;1.00;;;;;;5115175;28;20190;-41
2023/12/17 08:22:55;;;;;;;8.20;7.40;;;9.40;99.90;;;;;;5116462;28;20172;-41
2023/12/17 08:25:21;;;;;;;9.40;8.47;;;9.90;1.00;;;;;;5115450;28;20229;-49
2023/12/17 08:27:47;;;;;;;9.13;8.13;;;10.50;99.90;;;;;;5115318;28;20277;-43
2023/12/17 08:30:13;;;;;;;8.90;8.00;;;10.90;99.90;;;;;;5114995;28;20243;-44
2023/12/17 08:32:38;;;;;;;7.10;6.47;;;11.50;99.90;;;;;;5114253;28;20579;-41
2023/12/17 08:35:06;;;;;;;7.83;7.13;;;12.00;99.90;;;;;;5114738;28;20843;-42
2023/12/17 08:37:32;;;;;;;6.87;6.27;;;12.50;13.80;;;;;;5096776;28;20195;-42
2023/12/17 08:39:58;;;;;;;7.20;6.30;;;13.00;1.00;;;;;;5114304;28;20425;-44
2023/12/17 08:42:24;;;;;;;7.40;6.70;;;13.50;1.00;;;;;;5116135;28;20205;-47
2023/12/17 08:44:50;;;;;;;7.50;6.90;;;13.90;1.00;;;;;;5116380;28;20215;-43
2023/12/17 08:47:19;;;;;;;6.53;5.77;;;14.60;1.00;;;;;;5116631;28;20529;-41
2023/12/17 08:49:45;;;;;;;7.07;6.37;;;15.10;1.00;;;;;;5117040;28;20450;-51
2023/12/17 08:52:11;;;;;;;8.33;6.60;;;15.80;1.00;;;;;;5116662;28;20529;-43
2023/12/17 08:54:36;;;;;;;6.33;5.57;;;16.40;1.00;;;;;;5118215;28;20180;-42
2023/12/17 08:57:02;;;;;;;7.90;7.20;;;16.90;1.00;;;;;;5117065;28;20163;-42
2023/12/17 08:59:27;;;;;;;6.70;6.10;;;17.30;1.00;;;;;;5116912;28;20168;-43
2023/12/17 09:01:53;;;;;;;6.77;6.07;;;17.90;1.00;;;;;;5117918;28;20179;-41
2023/12/17 09:04:19;;;;;;;6.67;6.10;;;18.60;1.00;;;;;;5116107;28;20689;-43
2023/12/17 09:06:46;;;;;;;6.20;5.60;;;19.10;1.00;;;;;;5099398;28;20168;-43
2023/12/17 09:09:15;;;;;;;4.70;4.27;;;19.70;1.00;;;;;;5116278;28;20448;-40
2023/12/17 09:11:44;;;;;;;5.23;4.80;;;20.30;1.00;;;;;;5115672;28;20465;-43
2023/12/17 09:14:11;;;;;;;5.77;5.20;;;20.70;1.00;;;;;;5116119;28;20596;-40
2023/12/17 09:16:51;;;;;;;5.70;4.97;;;21.20;1.00;;;;;;5115159;28;20445;-41
2023/12/17 09:19:17;;;;;;;4.80;4.40;;;21.50;1.00;;;;;;5114181;28;20441;-45
2023/12/17 09:21:45;;;;;;;5.20;4.63;;;21.70;1.00;;;;;;5113168;28;20807;-44
2023/12/17 09:24:13;;;;;;;5.17;4.73;;;22.10;1.00;;;;;;5114264;28;20701;-41
2023/12/17 09:26:39;;;;;;;5.20;4.27;;;22.60;1.00;;;;;;5114371;28;20429;-41
2023/12/17 09:29:06;;;;;;;4.20;3.80;;;23.10;1.00;;;;;;5116161;28;20433;-41
2023/12/17 09:31:31;;;;;;;4.73;4.30;;;23.50;1.00;;;;;;5116898;28;20455;-42
2023/12/17 09:34:01;;;;;;;4.83;4.33;;;24.00;1.00;;;;;;5082599;28;20252;-40
2023/12/17 09:36:27;;;;;;;4.43;4.00;;;24.20;1.00;;;;;;5117806;28;20495;-42
2023/12/17 09:38:55;;;;;;;4.70;4.30;;;24.50;1.00;;;;;;5117618;28;20466;-42
2023/12/17 09:41:24;;;;;;;4.33;3.93;;;25.00;1.00;;;;;;5114956;28;20164;-42
2023/12/17 09:43:53;;;;;;;5.53;5.03;;;25.50;1.00;;;;;;5115817;28;20959;-42
2023/12/17 09:46:35;;;;;;;5.60;5.10;;;25.90;1.00;;;;;;5097047;28;20649;-41
2023/12/17 09:49:00;;;;;;;5.80;5.30;;;26.20;1.00;;;;;;5115505;28;20421;-44
2023/12/17 09:51:32;;;;;;;5.63;5.13;;;26.70;1.00;;;;;;5117514;28;20772;-41
2023/12/17 09:53:58;;;;;;;5.87;5.37;;;27.20;1.00;;;;;;5098313;28;20485;-50
2023/12/17 09:56:24;;;;;;;5.20;4.80;;;27.60;1.00;;;;;;5097013;28;20494;-40
2023/12/17 09:58:53;;;;;;;5.40;4.97;;;28.00;1.00;;;;;;5114506;28;20858;-39
2023/12/17 10:01:25;;;;;;;4.70;4.30;;;28.40;1.00;;;;;;5117477;28;20172;-42
2023/12/17 10:03:50;;;;;;;4.80;4.40;;;28.60;1.00;;;;;;5116295;28;20425;-40
2023/12/17 10:06:39;;;;;;;4.50;4.10;;;29.10;1.00;;;;;;5113678;28;20673;-40
2023/12/17 10:09:06;;;;;;;4.50;4.10;;;29.40;1.00;;;;;;5096498;28;20184;-42
2023/12/17 10:11:33;;;;;;;4.37;4.00;;;29.50;1.00;;;;;;5113866;28;20753;-44
2023/12/17 10:14:01;;;;;;;4.70;4.33;;;29.60;1.00;;;;;;5114482;28;20767;-42
2023/12/17 10:16:27;;;;;;;4.23;3.83;;;30.00;1.00;;;;;;5115192;28;20848;-40
2023/12/17 10:19:31;;;;;;;4.97;4.57;;;30.20;1.00;;;;;;5118537;28;20453;-40
2023/12/17 10:22:06;;;;;;;4.97;4.57;;;30.40;1.00;;;;;;5117198;28;20239;-41
2023/12/17 10:24:41;;;;;;;4.90;4.53;;;30.80;1.00;;;;;;5115627;28;20505;-43
2023/12/17 10:27:19;;;;;;;4.87;4.47;;;31.10;1.00;;;;;;5118291;28;20448;-40
2023/12/17 10:29:51;;;;;;;4.90;4.50;;;31.50;1.00;;;;;;5118498;28;20449;-40
2023/12/17 10:32:24;;;;;;;4.30;3.90;;;31.50;1.00;;;;;;5119187;28;20400;-41
2023/12/17 10:34:57;;;;;;;4.87;4.47;;;31.60;1.00;;;;;;5117303;28;20476;-40
2023/12/17 10:37:24;;;;;;;4.80;3.73;;;31.10;1.00;;;;;;5118397;28;20421;-41
2023/12/17 10:39:54;;;;;;;3.63;3.33;;;31.20;1.00;;;;;;5118068;28;20407;-43
2023/12/17 10:42:20;;;;;;;4.07;3.67;;;31.10;1.00;;;;;;5117436;28;20413;-51
2023/12/17 10:44:47;;;;;;;3.90;3.57;;;31.10;1.00;;;;;;5099556;28;20410;-41
2023/12/17 10:47:21;;;;;;;3.80;3.50;;;31.10;1.00;;;;;;5118644;28;20463;-40
2023/12/17 10:49:53;;;;;;;4.00;3.60;;;30.60;1.00;;;;;;5118285;28;20404;-40
2023/12/17 10:52:26;;;;;;;3.97;3.63;;;30.40;1.00;;;;;;5088468;28;20461;-42
2023/12/17 10:54:55;;;;;;;4.40;4.00;;;30.20;1.00;;;;;;5116049;28;20747;-41
2023/12/17 10:57:23;;;;;;;4.87;4.47;;;30.20;1.00;;;;;;5098394;28;20666;-43
2023/12/17 10:59:52;;;;;;;4.90;4.53;;;30.20;1.00;;;;;;5100304;28;20405;-44
2023/12/17 11:02:21;;;;;;;4.40;4.03;;;30.30;1.00;;;;;;5116165;28;20486;-43
2023/12/17 11:04:48;;;;;;;4.77;4.47;;;30.50;1.00;;;;;;5099171;28;20461;-42
2023/12/17 11:07:21;;;;;;;5.50;5.10;;;30.90;1.00;;;;;;5100336;28;20494;-41
2023/12/17 11:09:47;;;;;;;5.23;4.83;;;31.20;1.00;;;;;;5118532;28;20452;-42
2023/12/17 11:12:20;;;;;;;6.40;5.80;;;31.50;1.00;;;;;;5117940;28;20426;-40
2023/12/17 11:14:50;;;;;;;5.33;4.93;;;32.00;1.00;;;;;;5100413;28;20473;-44
2023/12/17 11:17:16;;;;;;;5.50;5.00;;;32.60;1.00;;;;;;5095406;28;20452;-41
2023/12/17 11:20:09;;;;;;;5.17;4.70;;;32.90;1.00;;;;;;5096351;28;20432;-50
2023/12/17 11:22:36;;;;;;;4.20;3.90;;;33.20;1.00;;;;;;5097083;28;20263;-46
2023/12/17 11:25:28;;;;;;;3.50;3.20;;;33.70;1.00;;;;;;5097468;28;20436;-43
2023/12/17 11:27:53;;;;;;;3.40;3.10;;;33.80;1.00;;;;;;5094215;28;20465;-44
2023/12/17 11:30:38;;;;;;;4.07;3.77;;;33.70;1.00;;;;;;5072705;28;20434;-47
2023/12/17 11:33:12;;;;;;;4.97;4.57;;;33.90;1.00;;;;;;5113183;28;20280;-44
2023/12/17 11:35:43;;;;;;;5.00;4.60;;;34.00;1.00;;;;;;5115998;28;20463;-46
2023/12/17 11:38:13;;;;;;;4.40;4.10;;;34.00;1.00;;;;;;5116024;28;20435;-47
2023/12/17 11:40:45;;;;;;;4.33;4.03;;;34.10;1.00;;;;;;5098349;28;20425;-46
2023/12/17 11:43:13;;;;;;;4.27;3.97;;;34.20;1.00;;;;;;5099152;28;20441;-42
2023/12/17 11:45:46;;;;;;;3.60;3.30;;;34.00;1.00;;;;;;5115273;28;20505;-46
2023/12/17 11:48:22;;;;;;;4.90;3.33;;;34.10;1.00;;;;;;5116279;28;20818;-47
2023/12/17 11:50:58;;;;;;;4.20;3.90;;;34.50;1.00;;;;;;5117017;28;20427;-43
2023/12/17 11:53:30;;;;;;;4.50;3.60;;;34.70;1.00;;;;;;5117775;28;20452;-47
2023/12/17 11:56:03;;;;;;;4.23;2.80;;;34.80;1.00;;;;;;5116748;28;20433;-45
2023/12/17 11:58:58;;;;;;;3.30;3.00;;;34.40;1.00;;;;;;5118410;28;20398;-43
2023/12/17 12:01:27;;;;;;;3.30;3.10;;;34.50;1.00;;;;;;5118035;28;20523;-46
2023/12/17 12:03:59;;;;;;;3.93;3.57;;;35.00;1.00;;;;;;5099554;28;20432;-50
2023/12/17 12:06:26;;;;;;;3.80;3.40;;;35.10;1.00;;;;;;5103489;27;20476;-47
2023/12/17 12:08:52;;;;;;;3.73;3.43;;;35.10;1.00;;;;;;5138622;27;20409;-48
2023/12/17 12:11:19;;;;;;;5.37;3.00;;;35.40;1.00;;;;;;5137996;27;20405;-46
2023/12/17 12:13:48;;;;;;;2.80;2.60;;;35.60;1.00;;;;;;5135508;27;20215;-43
2023/12/17 12:16:19;;;;;;;4.00;3.60;;;35.60;1.00;;;;;;5137485;27;20427;-46
2023/12/17 12:18:50;;;;;;;4.10;3.73;;;35.80;1.00;;;;;;5137634;27;20497;-44
2023/12/17 12:21:28;;;;;;;3.70;3.40;;;35.80;1.00;;;;;;5137574;27;20423;-49
2023/12/17 12:24:01;;;;;;;3.53;3.23;;;35.90;1.00;;;;;;5135276;27;20436;-43
2023/12/17 12:26:32;;;;;;;3.30;3.03;;;35.80;1.00;;;;;;5136789;27;20432;-42
2023/12/17 12:29:06;;;;;;;3.80;3.50;;;35.80;1.00;;;;;;5136518;27;20533;-44
2023/12/17 12:31:34;;;;;;;3.00;2.80;;;35.80;1.00;;;;;;5136053;27;21086;-41
2023/12/17 12:34:09;;;;;;;2.50;2.30;;;36.30;1.00;;;;;;5135547;27;20490;-45
2023/12/17 12:36:48;;;;;;;3.50;3.10;;;36.50;1.00;;;;;;5134288;27;20714;-42
2023/12/17 12:39:17;;;;;;;2.60;2.40;;;36.30;1.00;;;;;;5136346;27;20412;-43
2023/12/17 12:41:48;;;;;;;3.30;2.90;;;36.30;1.00;;;;;;5135678;27;20689;-40
2023/12/17 12:44:15;;;;;;;2.63;2.43;;;36.30;1.00;;;;;;5134567;27;20464;-43
2023/12/17 12:50:03;;;;;;;3.37;2.73;;;36.20;1.00;;;;;;5130728;27;20863;-42
2023/12/17 12:52:30;;;;;;;3.77;2.80;;;36.40;1.00;;;;;;5094247;28;20605;-41
2023/12/17 12:54:55;;;;;;;2.70;2.50;;;36.60;1.00;;;;;;5077778;28;20508;-42
2023/12/17 12:57:22;;;;;;;2.63;2.43;;;37.00;1.00;;;;;;5095379;28;20405;-42
2023/12/17 12:59:48;;;;;;;2.70;2.50;;;37.20;1.00;;;;;;5094699;28;20168;-41